»·PEaware :: N421CS KDTA-KSLC

N421CS :: KDTA-KSLC

FLIGHT INFORMATION

Flight Status: Arrived
Operator: Privately registered:
United States
More flights under this callsign
Pilot: Christopher S. (2105)
Aircraft: BEECH AIRCRAFT A90-E90 KING AIR
(BE9L)
More flights by this aircraft type
Origin: KDTA Delta Mun
United States
Destination: KSLC Salt Lake City Intl
United States
More flights between these airports :: More routes between these airports
Route: +PUCIT V21 MASIE
File this flight plan on PilotEdge
Remarks:
Altitude:
(Current/Filed)
1,100ft
Speed:
(Current/Filed)
225kts
Departed: 08-Jan-17 12:53 PM
Arrived: 08-Jan-17 01:58 PM
Distance/Time
Traveled:
88nm/1:04
Distance/Time
To Go:
Arrived

Flight Plot

Page will automatically refresh every two minutes.


Map Options




Map Legend


Flown Route
Filed Route
Departure Airport
Arrival Airport
Navaid (VOR, NDB)
Fix

Horizontal Profiles

Position Reports

Time Latitude Longitude Heading Altitude Ground
Speed
08-Jan-17 12:48 39.390401 -112.503149 36 4758ft 0kts
08-Jan-17 12:49 39.390401 -112.503149 36 4758ft 0kts
08-Jan-17 12:50 39.390401 -112.503149 36 4758ft 0kts
08-Jan-17 12:51 39.390401 -112.503149 36 4758ft 0kts
08-Jan-17 12:52 39.389427 -112.502203 178 4758ft 36kts
08-Jan-17 12:53 39.358059 -112.501533 179 5654ft 149kts
08-Jan-17 12:54 39.314666 -112.496748 197 6484ft 156kts
08-Jan-17 12:55 39.286410 -112.531882 238 6493ft 150kts
08-Jan-17 12:56 39.261583 -112.571477 205 6494ft 147kts
08-Jan-17 12:57 39.225194 -112.594155 209 6488ft 140kts
08-Jan-17 12:58 39.210293 -112.557403 46 6493ft 197kts
08-Jan-17 12:59 39.258183 -112.529378 24 6492ft 193kts
08-Jan-17 13:00 39.307195 -112.505726 11 6493ft 188kts
08-Jan-17 13:01 39.325462 -112.531831 215 6503ft 120kts
08-Jan-17 13:02 39.293899 -112.551186 210 6492ft 128kts
08-Jan-17 13:03 39.261002 -112.569368 207 6492ft 131kts
08-Jan-17 13:04 39.227097 -112.586392 199 6476ft 135kts
08-Jan-17 13:05 39.223604 -112.538286 23 6485ft 208kts
08-Jan-17 13:06 39.277572 -112.520598 12 6483ft 206kts
08-Jan-17 13:07 39.328482 -112.508814 300 6484ft 163kts
08-Jan-17 13:08 39.310876 -112.538810 203 6484ft 132kts
08-Jan-17 13:09 39.276779 -112.555962 208 6482ft 133kts
08-Jan-17 13:10 39.243500 -112.575013 209 6484ft 133kts
08-Jan-17 13:11 39.209544 -112.593181 208 6482ft 132kts
08-Jan-17 13:12 39.185854 -112.565146 72 6484ft 209kts
08-Jan-17 13:13 39.235213 -112.539304 6 6484ft 204kts
08-Jan-17 13:14 39.289144 -112.512305 19 7210ft 224kts
08-Jan-17 13:15 39.330328 -112.520416 250 8406ft 144kts
08-Jan-17 13:16 39.293885 -112.546091 214 9638ft 160kts
08-Jan-17 13:17 39.253805 -112.570918 215 10847ft 163kts
08-Jan-17 13:18 39.212798 -112.593595 215 12047ft 163kts
08-Jan-17 13:19 39.169659 -112.584774 118 12962ft 250kts
08-Jan-17 13:20 39.208654 -112.530514 349 12974ft 236kts
08-Jan-17 13:21 39.274985 -112.524965 358 12969ft 253kts
08-Jan-17 13:22 39.342015 -112.490351 19 12969ft 271kts
08-Jan-17 13:23 39.407073 -112.444249 15 12963ft 269kts
08-Jan-17 13:24 39.474004 -112.405422 12 12960ft 267kts
08-Jan-17 13:25 39.541144 -112.367361 12 12961ft 267kts
08-Jan-17 13:26 39.605311 -112.331007 13 12950ft 266kts
08-Jan-17 13:27 39.672319 -112.293014 13 12951ft 266kts
08-Jan-17 13:28 39.739649 -112.254810 13 12951ft 266kts
08-Jan-17 13:29 39.805581 -112.217247 13 12952ft 266kts
08-Jan-17 13:30 39.870061 -112.180478 13 12988ft 265kts
08-Jan-17 13:31 39.936465 -112.142348 13 13062ft 264kts
08-Jan-17 13:32 40.002867 -112.104168 13 13063ft 265kts
08-Jan-17 13:33 40.069844 -112.064484 15 13064ft 267kts
08-Jan-17 13:34 40.131991 -112.025631 15 13063ft 267kts
08-Jan-17 13:35 40.197923 -112.008165 342 13063ft 238kts
08-Jan-17 13:36 40.261505 -112.019616 338 13062ft 236kts
08-Jan-17 13:37 40.325762 -112.032690 337 13063ft 237kts
08-Jan-17 13:38 40.388881 -112.046177 337 12992ft 239kts
08-Jan-17 13:39 40.453385 -112.060015 337 12989ft 238kts
08-Jan-17 13:40 40.517014 -112.073606 337 12990ft 238kts
08-Jan-17 13:41 40.582821 -112.087730 338 12248ft 256kts
08-Jan-17 13:42 40.651755 -112.103497 340 11285ft 265kts
08-Jan-17 13:43 40.720480 -112.118935 339 10996ft 234kts
08-Jan-17 13:44 40.783520 -112.131043 340 10999ft 228kts
08-Jan-17 13:45 40.845908 -112.141739 340 10744ft 237kts
08-Jan-17 13:46 40.912404 -112.156079 340 9772ft 247kts
08-Jan-17 13:47 40.975721 -112.170884 340 8997ft 240kts
08-Jan-17 13:48 41.033128 -112.156132 65 8983ft 234kts
08-Jan-17 13:49 41.048372 -112.078269 87 8983ft 216kts
08-Jan-17 13:50 41.052248 -112.003297 99 8984ft 204kts
08-Jan-17 13:51 41.026319 -111.955030 170 8873ft 159kts
08-Jan-17 13:52 40.984253 -111.945005 195 8447ft 147kts
08-Jan-17 13:53 40.944824 -111.956987 204 7614ft 153kts
08-Jan-17 13:54 40.898868 -111.963117 187 6575ft 173kts
08-Jan-17 13:55 40.855873 -111.964007 186 5279ft 140kts
08-Jan-17 13:56 40.820058 -111.962566 182 4676ft 115kts
08-Jan-17 13:57 40.792460 -111.962096 182 4220ft 69kts
08-Jan-17 13:58 40.786664 -111.961050 119 4220ft 0kts
08-Jan-17 13:59 40.785431 -111.959472 117 4220ft 7kts
08-Jan-17 14:00 40.786173 -111.958392 29 4220ft 0kts

Navigation Log

Ident Type
Flight plan parsing failed, navigation log unavailable